createdAt,value
2022-08-03T00:00:53.890Z,98424.03
2022-08-03T00:01:55.381Z,98424.03
2022-08-03T00:02:56.941Z,98428.28
2022-08-03T00:03:58.479Z,98428.66
2022-08-03T00:05:00.013Z,98427.09
2022-08-03T00:06:04.732Z,98423.22
2022-08-03T00:07:06.688Z,98422.84
2022-08-03T00:08:08.334Z,98423.97
2022-08-03T00:09:10.676Z,98420.91
2022-08-03T00:10:13.524Z,98427.06
2022-08-03T00:11:15.055Z,98428.25
2022-08-03T00:12:17.205Z,98424.38
2022-08-03T00:13:18.918Z,98430.16
2022-08-03T00:14:20.415Z,98428.56
2022-08-03T00:15:21.999Z,98422.41
2022-08-03T00:16:24.476Z,98422.41
2022-08-03T00:17:26.048Z,98427.03
2022-08-03T00:18:27.551Z,98423.97
2022-08-03T00:19:29.277Z,98423.59
2022-08-03T00:20:30.768Z,98419.75
2022-08-03T00:21:32.303Z,98431.69
2022-08-03T00:22:35.321Z,98414.72
2022-08-03T00:23:51.129Z,98413.56
2022-08-03T00:24:53.437Z,98416.66
2022-08-03T00:25:54.979Z,98419.34
2022-08-03T00:26:56.469Z,98423.94
2022-08-03T00:27:58.130Z,98410.44
2022-08-03T00:28:59.600Z,98411.19
2022-08-03T00:30:01.099Z,98416.97
2022-08-03T00:31:02.856Z,98418.50
2022-08-03T00:32:05.175Z,98415.81
2022-08-03T00:33:06.802Z,98410.41
2022-08-03T00:34:09.943Z,98412.34
2022-08-03T00:35:18.286Z,98412.34
2022-08-03T00:36:33.138Z,98421.56
2022-08-03T00:37:41.610Z,98416.13
2022-08-03T00:38:43.503Z,98417.28
2022-08-03T00:39:45.052Z,98414.94
2022-08-03T00:40:46.765Z,98414.56
2022-08-03T00:41:48.231Z,98415.72
2022-08-03T00:43:00.935Z,98409.13
2022-08-03T00:44:02.510Z,98419.16
2022-08-03T00:45:04.239Z,98414.13
2022-08-03T00:46:05.863Z,98414.91
2022-08-03T00:47:08.022Z,98417.59
2022-08-03T00:48:29.728Z,98419.13
2022-08-03T00:49:32.742Z,98416.03
2022-08-03T00:50:40.225Z,98419.88
2022-08-03T00:51:41.894Z,98413.31
2022-08-03T00:52:44.019Z,98415.63
2022-08-03T00:53:45.621Z,98413.28
2022-08-03T00:54:47.206Z,98409.81
2022-08-03T00:55:48.827Z,98417.88
2022-08-03T00:57:00.141Z,98415.97
2022-08-03T00:58:03.321Z,98415.19
2022-08-03T00:59:04.974Z,98417.88
2022-08-03T01:00:08.734Z,98417.47
2022-08-03T01:01:10.752Z,98418.59
2022-08-03T01:02:12.444Z,98411.66
2022-08-03T01:03:13.973Z,98411.28
2022-08-03T01:04:15.643Z,98417.09
2022-08-03T01:05:17.669Z,98413.22
2022-08-03T01:06:42.464Z,98409.78
2022-08-03T01:08:12.171Z,98409.78
2022-08-03T01:09:31.265Z,98412.44
2022-08-03T01:11:00.263Z,98415.88
2022-08-03T01:12:18.918Z,98409.66
2022-08-03T01:14:01.390Z,98407.72
2022-08-03T01:15:27.217Z,98404.28
2022-08-03T01:16:36.750Z,98411.56
2022-08-03T01:17:46.426Z,98405.00
2022-08-03T01:18:54.489Z,98408.84
2022-08-03T01:19:58.374Z,98407.66
2022-08-03T01:21:07.171Z,98408.44
2022-08-03T01:22:48.295Z,98408.09
2022-08-03T01:24:20.131Z,98404.97
2022-08-03T01:25:37.043Z,98404.97
2022-08-03T01:27:10.810Z,98403.78
2022-08-03T01:29:09.195Z,98406.06
2022-08-03T01:30:12.207Z,98402.97
2022-08-03T01:31:18.752Z,98406.44
2022-08-03T01:32:58.900Z,98400.69
2022-08-03T01:33:52.688Z,98403.72
2022-08-03T01:35:04.634Z,98399.13
2022-08-03T01:36:16.165Z,98399.91
2022-08-03T01:37:24.797Z,98401.03
2022-08-03T01:38:31.966Z,98392.59
2022-08-03T01:39:36.731Z,98389.91
2022-08-03T01:40:41.222Z,98393.72
2022-08-03T01:41:49.360Z,98396.06
2022-08-03T01:42:52.152Z,98393.38
2022-08-03T01:44:28.172Z,98394.53
2022-08-03T01:45:17.910Z,98383.75
2022-08-03T01:46:21.559Z,98389.47
2022-08-03T01:47:25.267Z,98374.84
2022-08-03T01:48:27.996Z,98387.19
2022-08-03T01:49:33.775Z,98385.63
2022-08-03T01:50:36.088Z,98388.69
2022-08-03T01:52:03.393Z,98391.38
2022-08-03T01:53:03.787Z,98379.81
2022-08-03T01:54:07.889Z,98384.00
2022-08-03T01:55:11.144Z,98382.47
2022-08-03T01:56:14.579Z,98387.84
2022-08-03T01:57:17.551Z,98378.19
2022-08-03T01:58:20.846Z,98377.44
2022-08-03T01:59:23.621Z,98383.19
2022-08-03T02:00:26.930Z,98379.69
2022-08-03T02:02:29.892Z,98382.00
2022-08-03T02:02:54.518Z,98377.72
2022-08-03T02:04:00.927Z,98372.28
2022-08-03T02:05:05.752Z,98379.25
2022-08-03T02:07:00.556Z,98374.59
2022-08-03T02:07:36.719Z,98371.50
2022-08-03T02:08:41.687Z,98382.31
2022-08-03T02:09:46.662Z,98380.38
2022-08-03T02:10:49.932Z,98373.44
2022-08-03T02:11:52.971Z,98373.44
2022-08-03T02:12:55.379Z,98376.16
2022-08-03T02:14:00.689Z,98365.72
2022-08-03T02:15:02.854Z,98381.53
2022-08-03T02:16:05.119Z,98377.69
2022-08-03T02:17:07.959Z,98377.28
2022-08-03T02:18:10.890Z,98375.38
2022-08-03T02:19:13.578Z,98378.84
2022-08-03T02:20:16.181Z,98381.16
2022-08-03T02:21:21.030Z,98380.38
2022-08-03T02:22:41.320Z,98380.38
2022-08-03T02:23:42.836Z,98387.72
2022-08-03T02:24:49.336Z,98378.09
2022-08-03T02:25:58.240Z,98376.56
2022-08-03T02:27:05.722Z,98378.06
2022-08-03T02:28:22.149Z,98384.97
2022-08-03T02:29:39.629Z,98384.19
2022-08-03T02:30:45.406Z,98381.06
2022-08-03T02:31:50.175Z,98382.25
2022-08-03T02:32:55.317Z,98378.38
2022-08-03T02:34:01.927Z,98377.97
2022-08-03T02:35:06.007Z,98384.84
2022-08-03T02:36:08.888Z,98387.50
2022-08-03T02:37:11.950Z,98382.09
2022-08-03T02:38:15.980Z,98380.56
2022-08-03T02:39:20.598Z,98377.88
2022-08-03T02:40:24.218Z,98379.78
2022-08-03T02:41:37.006Z,98378.22
2022-08-03T02:42:41.379Z,98375.53
2022-08-03T02:44:05.934Z,98371.34
2022-08-03T02:45:11.937Z,98372.94
2022-08-03T02:46:18.071Z,98365.66
2022-08-03T02:47:20.372Z,98372.59
2022-08-03T02:48:27.901Z,98373.34
2022-08-03T02:49:49.539Z,98376.06
2022-08-03T02:50:53.657Z,98372.22
2022-08-03T02:51:57.090Z,98374.13
2022-08-03T02:52:59.567Z,98368.78
2022-08-03T02:54:04.184Z,98371.09
2022-08-03T02:55:08.278Z,98373.78
2022-08-03T02:56:10.414Z,98371.81
2022-08-03T02:57:13.119Z,98368.38
2022-08-03T02:58:18.454Z,98371.06
2022-08-03T02:59:21.046Z,98369.88
2022-08-03T03:00:28.485Z,98362.53
2022-08-03T03:01:31.341Z,98369.50
2022-08-03T03:02:34.203Z,98373.34
2022-08-03T03:03:44.899Z,98375.66
2022-08-03T03:05:50.885Z,98371.03
2022-08-03T03:06:13.382Z,98367.97
2022-08-03T03:07:17.468Z,98371.50
2022-08-03T03:08:20.826Z,98361.91
2022-08-03T03:09:29.163Z,98373.44
2022-08-03T03:10:43.010Z,98366.84
2022-08-03T03:11:45.900Z,98373.75
2022-08-03T03:12:49.118Z,98371.06
2022-08-03T03:13:51.546Z,98369.47
2022-08-03T03:14:53.148Z,98363.31
2022-08-03T03:15:56.981Z,98365.22
2022-08-03T03:16:58.787Z,98374.50
2022-08-03T03:18:01.488Z,98369.88
2022-08-03T03:19:03.158Z,98365.28
2022-08-03T03:20:07.215Z,98373.34
2022-08-03T03:21:09.988Z,98366.44
2022-08-03T03:22:13.112Z,98372.59
2022-08-03T03:23:15.418Z,98369.47
2022-08-03T03:24:17.827Z,98374.50
2022-08-03T03:25:20.116Z,98369.09
2022-08-03T03:26:23.060Z,98367.94
2022-08-03T03:27:24.926Z,98369.84
2022-08-03T03:28:30.507Z,98362.97
2022-08-03T03:29:39.134Z,98365.19
2022-08-03T03:30:41.163Z,98368.75
2022-08-03T03:31:42.748Z,98364.50
2022-08-03T03:32:44.375Z,98364.13
2022-08-03T03:33:46.455Z,98364.13
2022-08-03T03:34:48.163Z,98364.94
2022-08-03T03:35:50.605Z,98372.25
2022-08-03T03:36:52.083Z,98366.81
2022-08-03T03:37:53.667Z,98364.84
2022-08-03T03:38:55.273Z,98367.88
2022-08-03T03:39:56.807Z,98365.13
2022-08-03T03:40:58.496Z,98364.75
2022-08-03T03:42:00.719Z,98367.84
2022-08-03T03:43:03.168Z,98363.53
2022-08-03T03:44:04.966Z,98360.06
2022-08-03T03:45:07.736Z,98367.75
2022-08-03T03:46:13.140Z,98361.88
2022-08-03T03:47:14.828Z,98371.13
2022-08-03T03:48:20.222Z,98364.59
2022-08-03T03:49:21.737Z,98369.25
2022-08-03T03:50:24.360Z,98365.00
2022-08-03T03:51:25.871Z,98369.97
2022-08-03T03:52:27.390Z,98365.00
2022-08-03T03:53:28.902Z,98372.31
2022-08-03T03:54:43.869Z,98368.03
2022-08-03T03:55:59.210Z,98370.34
2022-08-03T03:57:04.265Z,98362.66
2022-08-03T03:58:06.299Z,98368.47
2022-08-03T03:59:07.840Z,98368.47
2022-08-03T04:00:10.292Z,98374.22
2022-08-03T04:01:13.113Z,98364.59
2022-08-03T04:02:15.294Z,98371.94
2022-08-03T04:03:17.059Z,98365.34
2022-08-03T04:04:18.618Z,98368.09
2022-08-03T04:05:20.144Z,98370.78
2022-08-03T04:06:21.708Z,98366.16
2022-08-03T04:07:25.279Z,98368.78
2022-08-03T04:08:26.725Z,98372.25
2022-08-03T04:09:28.465Z,98371.88
2022-08-03T04:10:33.850Z,98373.75
2022-08-03T04:11:40.496Z,98373.75
2022-08-03T04:12:49.989Z,98377.25
2022-08-03T04:14:02.024Z,98379.16
2022-08-03T04:15:05.065Z,98373.03
2022-08-03T04:16:09.570Z,98371.50
2022-08-03T04:17:12.739Z,98380.34
2022-08-03T04:18:16.998Z,98378.47
2022-08-03T04:19:40.896Z,98373.91
2022-08-03T04:20:47.713Z,98377.31
2022-08-03T04:21:52.015Z,98375.78
2022-08-03T04:22:55.851Z,98381.56
2022-08-03T04:24:01.800Z,98381.19
2022-08-03T04:25:07.183Z,98385.44
2022-08-03T04:26:13.019Z,98382.31
2022-08-03T04:27:18.054Z,98381.19
2022-08-03T04:28:31.321Z,98381.50
2022-08-03T04:29:35.700Z,98379.56
2022-08-03T04:30:41.067Z,98384.94
2022-08-03T04:31:45.251Z,98379.13
2022-08-03T04:32:47.653Z,98379.56
2022-08-03T04:33:53.033Z,98384.94
2022-08-03T04:34:54.657Z,98386.44
2022-08-03T04:36:02.534Z,98388.09
2022-08-03T04:37:11.284Z,98388.03
2022-08-03T04:38:15.507Z,98384.19
2022-08-03T04:39:23.558Z,98385.31
2022-08-03T04:40:32.851Z,98386.88
2022-08-03T04:42:07.312Z,98386.13
2022-08-03T04:42:59.355Z,98389.63
2022-08-03T04:44:02.143Z,98395.84
2022-08-03T04:45:05.410Z,98385.06
2022-08-03T04:46:08.352Z,98386.69
2022-08-03T04:47:09.941Z,98393.78
2022-08-03T04:48:11.529Z,98394.91
2022-08-03T04:49:13.665Z,98394.59
2022-08-03T04:50:19.507Z,98391.06
2022-08-03T04:51:38.879Z,98393.88
2022-08-03T04:52:40.678Z,98397.97
2022-08-03T04:53:43.855Z,98392.72
2022-08-03T04:54:50.941Z,98388.31
2022-08-03T04:55:52.732Z,98397.47
2022-08-03T04:56:54.222Z,98399.28
2022-08-03T04:57:56.509Z,98391.19
2022-08-03T04:58:58.026Z,98400.50
2022-08-03T05:00:03.081Z,98391.59
2022-08-03T05:01:05.190Z,98391.59
2022-08-03T05:02:06.685Z,98399.22
2022-08-03T05:03:20.285Z,98398.59
2022-08-03T05:04:25.952Z,98393.59
2022-08-03T05:05:37.857Z,98396.78
2022-08-03T05:06:55.144Z,98398.59
2022-08-03T05:07:57.379Z,98391.38
2022-08-03T05:09:03.060Z,98393.59
2022-08-03T05:10:16.240Z,98383.97
2022-08-03T05:11:18.366Z,98392.00
2022-08-03T05:12:19.901Z,98391.19
2022-08-03T05:13:21.477Z,98393.88
2022-08-03T05:14:27.970Z,98392.28
2022-08-03T05:15:29.943Z,98390.47
2022-08-03T05:16:34.229Z,98384.19
2022-08-03T05:17:35.850Z,98388.72
2022-08-03T05:18:37.802Z,98394.94
2022-08-03T05:19:39.281Z,98392.81
2022-08-03T05:20:40.884Z,98394.47
2022-08-03T05:21:52.332Z,98393.16
2022-08-03T05:22:54.242Z,98399.28
2022-08-03T05:23:55.812Z,98395.34
2022-08-03T05:24:57.865Z,98396.34
2022-08-03T05:25:59.475Z,98399.75
2022-08-03T05:27:00.994Z,98400.47
2022-08-03T05:28:02.534Z,98401.75
2022-08-03T05:29:04.031Z,98384.94
2022-08-03T05:30:27.157Z,98395.59
2022-08-03T05:31:27.706Z,98393.56
2022-08-03T05:32:29.216Z,98397.09
2022-08-03T05:33:30.788Z,98400.50
2022-08-03T05:34:32.355Z,98402.19
2022-08-03T05:36:01.981Z,98385.78
2022-08-03T05:36:55.407Z,98398.13
2022-08-03T05:37:57.006Z,98395.16
2022-08-03T05:39:02.477Z,98392.13
2022-08-03T05:40:05.066Z,98400.84
2022-08-03T05:41:21.657Z,98404.38
2022-08-03T05:42:25.417Z,98399.16
2022-08-03T05:43:27.068Z,98396.09
2022-08-03T05:44:29.072Z,98396.97
2022-08-03T05:45:35.313Z,98394.47
2022-08-03T05:46:37.106Z,98401.28
2022-08-03T05:47:38.581Z,98401.66
2022-08-03T05:48:40.973Z,98405.53
2022-08-03T05:49:42.860Z,98398.03
2022-08-03T05:50:44.381Z,98399.25
2022-08-03T05:51:46.147Z,98398.53
2022-08-03T05:52:47.949Z,98400.69
2022-08-03T05:53:49.774Z,98395.03
2022-08-03T05:54:55.818Z,98393.31
2022-08-03T05:56:02.516Z,98404.84
2022-08-03T05:57:15.041Z,98399.34
2022-08-03T05:58:16.568Z,98395.88
2022-08-03T05:59:37.678Z,98398.56
2022-08-03T06:00:39.911Z,98405.63
2022-08-03T06:01:41.423Z,98400.28
2022-08-03T06:02:43.009Z,98400.00
2022-08-03T06:03:48.792Z,98400.75
2022-08-03T06:04:50.474Z,98404.38
2022-08-03T06:05:57.377Z,98397.94
2022-08-03T06:07:02.025Z,98397.00
2022-08-03T06:08:03.869Z,98403.69
2022-08-03T06:09:06.095Z,98399.47
2022-08-03T06:10:36.923Z,98396.66
2022-08-03T06:11:30.014Z,98394.78
2022-08-03T06:12:31.782Z,98401.06
2022-08-03T06:13:33.331Z,98405.44
2022-08-03T06:14:34.947Z,98396.84
2022-08-03T06:15:36.496Z,98395.69
2022-08-03T06:16:38.020Z,98393.13
2022-08-03T06:17:49.459Z,98400.50
2022-08-03T06:18:50.997Z,98402.66
2022-08-03T06:19:53.335Z,98395.56
2022-08-03T06:20:55.235Z,98399.28
2022-08-03T06:21:56.751Z,98401.31
2022-08-03T06:23:00.203Z,98396.78
2022-08-03T06:24:02.850Z,98404.19
2022-08-03T06:25:10.240Z,98402.63
2022-08-03T06:26:14.471Z,98405.00
2022-08-03T06:27:17.762Z,98404.69
2022-08-03T06:28:51.436Z,98397.66
2022-08-03T06:29:41.486Z,98402.25
2022-08-03T06:30:43.155Z,98397.16
2022-08-03T06:31:45.403Z,98399.03
2022-08-03T06:32:51.675Z,98392.78
2022-08-03T06:34:33.833Z,98391.69
2022-08-03T06:35:15.752Z,98392.66
2022-08-03T06:36:17.398Z,98386.09
2022-08-03T06:37:18.961Z,98392.06
2022-08-03T06:38:20.554Z,98390.09
2022-08-03T06:39:23.408Z,98399.44
2022-08-03T06:40:25.593Z,98399.94
2022-08-03T06:41:27.727Z,98398.56
2022-08-03T06:42:29.249Z,98392.28
2022-08-03T06:43:31.470Z,98399.16
2022-08-03T06:44:37.433Z,98393.53
2022-08-03T06:45:39.276Z,98396.56
2022-08-03T06:46:40.755Z,98399.31
2022-08-03T06:47:42.251Z,98392.94
2022-08-03T06:48:46.765Z,98395.59
2022-08-03T06:50:17.234Z,98401.16
2022-08-03T06:51:09.978Z,98401.09
2022-08-03T06:52:11.503Z,98395.63
2022-08-03T06:53:19.913Z,98401.94
2022-08-03T06:54:23.098Z,98401.34
2022-08-03T06:55:25.063Z,98404.59
2022-08-03T06:56:26.597Z,98401.16
2022-08-03T06:57:28.290Z,98399.63
2022-08-03T06:58:29.904Z,98402.19
2022-08-03T07:00:08.076Z,98395.88
2022-08-03T07:00:53.256Z,98397.63
2022-08-03T07:01:54.801Z,98397.63
2022-08-03T07:02:58.485Z,98401.66
2022-08-03T07:04:00.221Z,98403.44
2022-08-03T07:05:01.673Z,98400.91
2022-08-03T07:06:03.477Z,98404.44
2022-08-03T07:07:05.048Z,98403.94
2022-08-03T07:08:07.203Z,98409.50
2022-08-03T07:09:08.739Z,98405.72
2022-08-03T07:10:10.883Z,98403.69
2022-08-03T07:11:12.464Z,98403.38
2022-08-03T07:12:14.000Z,98401.44
2022-08-03T07:13:15.542Z,98406.88
2022-08-03T07:14:17.097Z,98405.06
2022-08-03T07:15:20.418Z,98401.25
2022-08-03T07:16:39.681Z,98401.09
2022-08-03T07:17:41.179Z,98399.03
2022-08-03T07:18:42.677Z,98396.34
2022-08-03T07:19:44.148Z,98405.81
2022-08-03T07:20:45.650Z,98399.22
2022-08-03T07:21:47.157Z,98399.13
2022-08-03T07:22:48.959Z,98402.22
2022-08-03T07:23:50.416Z,98396.25
2022-08-03T07:24:51.876Z,98387.28
2022-08-03T07:25:53.367Z,98397.06
2022-08-03T07:26:55.057Z,98399.88
2022-08-03T07:27:56.592Z,98396.09
2022-08-03T07:29:00.409Z,98392.56
2022-08-03T07:30:02.091Z,98390.31
2022-08-03T07:31:03.752Z,98396.03
2022-08-03T07:32:05.759Z,98390.09
2022-08-03T07:33:07.244Z,98403.69
2022-08-03T07:34:08.863Z,98397.50
2022-08-03T07:35:24.284Z,98397.81
2022-08-03T07:36:26.658Z,98400.63
2022-08-03T07:37:29.720Z,98399.88
2022-08-03T07:38:31.283Z,98399.09
2022-08-03T07:39:32.843Z,98404.84
2022-08-03T07:40:34.394Z,98397.81
2022-08-03T07:41:35.898Z,98395.34
2022-08-03T07:42:37.419Z,98405.59
2022-08-03T07:43:38.907Z,98405.00
2022-08-03T07:44:40.746Z,98406.81
2022-08-03T07:45:42.245Z,98408.09
2022-08-03T07:46:44.040Z,98407.56
2022-08-03T07:47:46.247Z,98407.84
2022-08-03T07:48:55.315Z,98404.78
2022-08-03T07:49:57.727Z,98407.16
2022-08-03T07:50:59.204Z,98410.75
2022-08-03T07:52:00.712Z,98417.88
2022-08-03T07:53:02.230Z,98408.38
2022-08-03T07:54:04.070Z,98407.53
2022-08-03T07:55:07.131Z,98400.78
2022-08-03T07:56:11.408Z,98401.13
2022-08-03T07:57:13.102Z,98400.88
2022-08-03T07:58:14.620Z,98405.41
2022-08-03T07:59:16.095Z,98404.13
2022-08-03T08:00:19.278Z,98403.19
2022-08-03T08:01:21.323Z,98398.38
2022-08-03T08:02:22.870Z,98398.16
2022-08-03T08:03:24.429Z,98396.84
2022-08-03T08:04:25.954Z,98400.09
2022-08-03T08:05:27.884Z,98397.16
2022-08-03T08:06:29.540Z,98398.81
2022-08-03T08:07:31.101Z,98398.13
2022-08-03T08:08:32.655Z,98392.81
2022-08-03T08:09:34.213Z,98392.50
2022-08-03T08:10:36.932Z,98389.31
2022-08-03T08:11:40.113Z,98398.88
2022-08-03T08:12:41.881Z,98394.06
2022-08-03T08:13:44.136Z,98394.94
2022-08-03T08:14:45.635Z,98391.78
2022-08-03T08:15:47.245Z,98394.31
2022-08-03T08:16:48.865Z,98392.81
2022-08-03T08:17:56.654Z,98393.03
2022-08-03T08:18:58.130Z,98388.66
2022-08-03T08:19:59.619Z,98392.16
2022-08-03T08:21:01.677Z,98394.38
2022-08-03T08:22:03.381Z,98388.16
2022-08-03T08:23:25.490Z,98397.44
2022-08-03T08:24:29.803Z,98393.69
2022-08-03T08:25:33.729Z,98390.53
2022-08-03T08:26:35.643Z,98391.94
2022-08-03T08:28:30.081Z,98387.47
2022-08-03T08:29:07.222Z,98396.13
2022-08-03T08:30:12.260Z,98394.41
2022-08-03T08:31:15.437Z,98394.41
2022-08-03T08:32:17.310Z,98387.28
2022-08-03T08:33:23.389Z,98391.09
2022-08-03T08:34:25.566Z,98390.78
2022-08-03T08:35:27.245Z,98388.72
2022-08-03T08:36:28.776Z,98395.59
2022-08-03T08:37:30.545Z,98389.34
2022-08-03T08:38:32.155Z,98385.19
2022-08-03T08:39:33.704Z,98386.94
2022-08-03T08:40:35.238Z,98384.41
2022-08-03T08:41:36.803Z,98390.09
2022-08-03T08:42:40.252Z,98389.13
2022-08-03T08:43:43.752Z,98389.69
2022-08-03T08:44:45.299Z,98385.06
2022-08-03T08:45:49.902Z,98389.22
2022-08-03T08:46:53.423Z,98388.78
2022-08-03T08:48:01.081Z,98388.22
2022-08-03T08:49:05.172Z,98385.06
2022-08-03T08:50:15.548Z,98390.63
2022-08-03T08:51:50.620Z,98388.84
2022-08-03T08:53:00.306Z,98383.59
2022-08-03T08:54:03.025Z,98387.31
2022-08-03T08:55:06.829Z,98388.19
2022-08-03T08:56:12.379Z,98389.16
2022-08-03T08:57:33.574Z,98386.56
2022-08-03T08:58:39.314Z,98384.50
2022-08-03T08:59:48.017Z,98385.00
2022-08-03T09:00:51.545Z,98375.19
2022-08-03T09:01:57.486Z,98379.53
2022-08-03T09:03:00.734Z,98386.31
2022-08-03T09:04:05.910Z,98389.72
2022-08-03T09:05:10.694Z,98385.31
2022-08-03T09:06:12.286Z,98372.91
2022-08-03T09:07:20.022Z,98392.75
2022-08-03T09:08:22.094Z,98384.66
2022-08-03T09:10:10.508Z,98385.81
2022-08-03T09:10:45.207Z,98382.56
2022-08-03T09:11:54.477Z,98381.41
2022-08-03T09:13:02.719Z,98388.41
2022-08-03T09:14:05.257Z,98389.94
2022-08-03T09:15:24.506Z,98383.88
2022-08-03T09:16:26.010Z,98382.44
2022-08-03T09:17:40.349Z,98385.84
2022-08-03T09:18:44.277Z,98381.25
2022-08-03T09:20:05.228Z,98372.03
2022-08-03T09:21:30.601Z,98376.50
2022-08-03T09:22:33.142Z,98383.56
2022-08-03T09:24:01.500Z,98375.34
2022-08-03T09:25:23.957Z,98381.72
2022-08-03T09:26:30.666Z,98373.50
2022-08-03T09:27:46.008Z,98372.63
2022-08-03T09:29:02.608Z,98379.53
2022-08-03T09:30:32.550Z,98368.16
2022-08-03T09:31:36.740Z,98373.69
2022-08-03T09:32:38.405Z,98370.38
2022-08-03T09:33:49.013Z,98381.53
2022-08-03T09:34:56.542Z,98375.22
2022-08-03T09:35:59.669Z,98378.59
2022-08-03T09:37:01.216Z,98371.66
2022-08-03T09:38:17.544Z,98368.47
2022-08-03T09:39:41.016Z,98373.38
2022-08-03T09:40:45.224Z,98371.84
2022-08-03T09:42:06.421Z,98366.06
2022-08-03T09:43:09.091Z,98370.41
2022-08-03T09:44:24.332Z,98370.72
2022-08-03T09:45:27.845Z,98372.25
2022-08-03T09:46:29.319Z,98374.78
2022-08-03T09:47:35.802Z,98370.47
2022-08-03T09:48:37.415Z,98372.28
2022-08-03T09:49:41.063Z,98365.16
2022-08-03T09:50:56.856Z,98370.28
2022-08-03T09:52:38.613Z,98369.44
2022-08-03T09:53:59.121Z,98370.59
2022-08-03T09:55:07.743Z,98362.81
2022-08-03T09:56:46.808Z,98363.50
2022-08-03T09:57:48.438Z,98359.53
2022-08-03T09:58:50.193Z,98361.66
2022-08-03T10:00:04.540Z,98359.53
2022-08-03T10:01:23.833Z,98360.97
2022-08-03T10:02:27.806Z,98362.94
2022-08-03T10:03:36.391Z,98366.50
2022-08-03T10:04:57.879Z,98364.09
2022-08-03T10:06:14.536Z,98362.28
2022-08-03T10:07:16.249Z,98365.66
2022-08-03T10:08:19.809Z,98358.50
2022-08-03T10:09:21.302Z,98357.56
2022-08-03T10:10:30.520Z,98361.84
2022-08-03T10:11:40.552Z,98356.22
2022-08-03T10:12:43.777Z,98358.47
2022-08-03T10:13:45.973Z,98355.53
2022-08-03T10:14:47.746Z,98349.28
2022-08-03T10:16:23.956Z,98355.53
2022-08-03T10:17:11.281Z,98352.09
2022-08-03T10:18:13.085Z,98349.22
2022-08-03T10:19:15.529Z,98349.25
2022-08-03T10:20:17.094Z,98347.00
2022-08-03T10:21:20.143Z,98346.41
2022-08-03T10:22:27.241Z,98346.56
2022-08-03T10:23:33.495Z,98343.28
2022-08-03T10:24:37.259Z,98347.59
2022-08-03T10:25:40.043Z,98337.22
2022-08-03T10:26:49.909Z,98337.53
2022-08-03T10:27:53.069Z,98333.69
2022-08-03T10:28:59.654Z,98332.94
2022-08-03T10:30:04.202Z,98336.00
2022-08-03T10:31:06.820Z,98336.47
2022-08-03T10:32:18.793Z,98336.34
2022-08-03T10:33:49.518Z,98336.97
2022-08-03T10:34:50.499Z,98336.97
2022-08-03T10:35:56.245Z,98327.13
2022-08-03T10:37:00.482Z,98332.28
2022-08-03T10:38:06.447Z,98335.50
2022-08-03T10:39:16.387Z,98335.03
2022-08-03T10:40:39.527Z,98328.16
2022-08-03T10:41:45.025Z,98325.41
2022-08-03T10:42:47.213Z,98331.09
2022-08-03T10:44:09.804Z,98320.41
2022-08-03T10:45:23.700Z,98324.53
2022-08-03T10:46:27.455Z,98323.91
2022-08-03T10:47:30.606Z,98324.66
2022-08-03T10:48:33.242Z,98322.81
2022-08-03T10:49:35.755Z,98322.19
2022-08-03T10:50:37.666Z,98321.78
2022-08-03T10:51:39.483Z,98315.81
2022-08-03T10:53:03.890Z,98320.88
2022-08-03T10:54:05.656Z,98315.97
2022-08-03T10:55:30.742Z,98308.81
2022-08-03T10:56:46.669Z,98312.44
2022-08-03T10:57:58.490Z,98309.09
2022-08-03T10:59:00.560Z,98306.34
2022-08-03T11:00:06.047Z,98308.13
2022-08-03T11:01:09.622Z,98308.88
2022-08-03T11:02:11.576Z,98309.19
2022-08-03T11:03:14.228Z,98308.44
2022-08-03T11:04:17.895Z,98313.81
2022-08-03T11:05:27.726Z,98306.75
2022-08-03T11:06:29.289Z,98300.34
2022-08-03T11:07:39.176Z,98311.59
2022-08-03T11:08:40.920Z,98304.13
2022-08-03T11:09:44.632Z,98301.97
2022-08-03T11:10:47.132Z,98303.03
2022-08-03T11:11:48.799Z,98304.22
2022-08-03T11:12:50.815Z,98299.31
2022-08-03T11:14:11.766Z,98295.75
2022-08-03T11:15:13.629Z,98305.78
2022-08-03T11:16:22.055Z,98302.00
2022-08-03T11:17:24.386Z,98302.72
2022-08-03T11:18:27.138Z,98301.00
2022-08-03T11:19:57.411Z,98298.03
2022-08-03T11:21:00.438Z,98295.97
2022-08-03T11:22:02.077Z,98299.88
2022-08-03T11:23:03.699Z,98300.53
2022-08-03T11:24:06.772Z,98298.53
2022-08-03T11:25:08.689Z,98299.34
2022-08-03T11:26:30.239Z,98293.31
2022-08-03T11:27:33.373Z,98285.63
2022-08-03T11:28:35.091Z,98292.63
2022-08-03T11:29:36.611Z,98290.75
2022-08-03T11:30:38.181Z,98293.13
2022-08-03T11:31:49.917Z,98290.66
2022-08-03T11:32:53.880Z,98288.09
2022-08-03T11:34:05.986Z,98284.78
2022-08-03T11:35:10.399Z,98281.31
2022-08-03T11:36:11.917Z,98277.44
2022-08-03T11:37:20.870Z,98292.03
2022-08-03T11:38:22.635Z,98283.09
2022-08-03T11:39:38.370Z,98275.34
2022-08-03T11:40:44.024Z,98280.81
2022-08-03T11:41:45.880Z,98280.16
2022-08-03T11:42:47.950Z,98283.97
2022-08-03T11:43:49.455Z,98279.16
2022-08-03T11:44:59.189Z,98279.25
2022-08-03T11:46:14.371Z,98278.63
2022-08-03T11:47:30.139Z,98268.44
2022-08-03T11:48:41.902Z,98285.03
2022-08-03T11:49:51.348Z,98275.06
2022-08-03T11:50:53.077Z,98282.28
2022-08-03T11:51:54.709Z,98281.78
2022-08-03T11:52:56.387Z,98283.22
2022-08-03T11:54:05.821Z,98281.25
2022-08-03T11:55:12.799Z,98283.03
2022-08-03T11:56:14.579Z,98280.78
2022-08-03T11:59:14.247Z,98271.00
2022-08-03T11:59:15.325Z,98270.50
2022-08-03T12:00:26.917Z,98266.13
2022-08-03T12:01:28.434Z,98270.34
2022-08-03T12:02:29.905Z,98269.47
2022-08-03T12:03:34.786Z,98269.84
2022-08-03T12:04:55.895Z,98273.47
2022-08-03T12:05:57.459Z,98272.50
2022-08-03T12:07:00.556Z,98270.66
2022-08-03T12:08:06.420Z,98278.84
2022-08-03T12:09:17.871Z,98269.34
2022-08-03T12:10:22.948Z,98267.72
2022-08-03T12:11:24.491Z,98265.91
2022-08-03T12:12:26.112Z,98262.41
2022-08-03T12:14:27.420Z,98262.47
2022-08-03T12:14:58.777Z,98264.72
2022-08-03T12:16:00.285Z,98258.03
2022-08-03T12:17:01.839Z,98268.09
2022-08-03T12:18:12.499Z,98268.44
2022-08-03T12:19:14.812Z,98265.00
2022-08-03T12:20:34.920Z,98263.00
2022-08-03T12:21:57.114Z,98260.66
2022-08-03T12:23:04.286Z,98256.84
2022-08-03T12:24:06.040Z,98263.59
2022-08-03T12:25:08.991Z,98266.78
2022-08-03T12:26:10.605Z,98260.78
2022-08-03T12:27:12.207Z,98262.78
2022-08-03T12:28:28.346Z,98256.38
2022-08-03T12:29:39.816Z,98261.22
2022-08-03T12:30:41.646Z,98252.56
2022-08-03T12:31:43.195Z,98256.50
2022-08-03T12:32:45.278Z,98256.88
2022-08-03T12:34:02.962Z,98262.03
2022-08-03T12:35:05.116Z,98258.47
2022-08-03T12:36:08.963Z,98259.28
2022-08-03T12:37:21.774Z,98256.53
2022-08-03T12:38:31.627Z,98258.78
2022-08-03T12:39:38.205Z,98256.31
2022-08-03T12:41:01.916Z,98246.59
2022-08-03T12:42:03.630Z,98254.13
2022-08-03T12:43:13.271Z,98254.66
2022-08-03T12:44:15.688Z,98248.84
2022-08-03T12:45:29.106Z,98256.00
2022-08-03T12:46:47.015Z,98254.25
2022-08-03T12:47:56.646Z,98240.81
2022-08-03T12:48:59.007Z,98246.09
2022-08-03T12:50:00.548Z,98246.53
2022-08-03T12:51:10.293Z,98242.66
2022-08-03T12:52:11.912Z,98241.91
2022-08-03T12:53:28.880Z,98242.72
2022-08-03T12:54:31.495Z,98242.09
2022-08-03T12:55:57.083Z,98235.97
2022-08-03T12:57:10.467Z,98239.59
2022-08-03T12:58:29.919Z,98237.44